sensor_id;sensor_type;location;lat;lon;timestamp;P1;durP1;ratioP1;P2;durP2;ratioP2
47455;SDS011;33202;48.512;-2.780;2023-02-25T00:02:23;15.23;;;6.43;;
47455;SDS011;33202;48.512;-2.780;2023-02-25T00:04:49;11.60;;;6.25;;
47455;SDS011;33202;48.512;-2.780;2023-02-25T00:07:15;12.43;;;6.55;;
47455;SDS011;33202;48.512;-2.780;2023-02-25T00:09:41;13.00;;;6.20;;
47455;SDS011;33202;48.512;-2.780;2023-02-25T00:12:07;13.07;;;5.97;;
47455;SDS011;33202;48.512;-2.780;2023-02-25T00:14:34;16.50;;;7.30;;
47455;SDS011;33202;48.512;-2.780;2023-02-25T00:17:00;11.65;;;6.25;;
47455;SDS011;33202;48.512;-2.780;2023-02-25T00:19:27;15.23;;;7.10;;
47455;SDS011;33202;48.512;-2.780;2023-02-25T00:21:53;12.05;;;6.00;;
47455;SDS011;33202;48.512;-2.780;2023-02-25T00:24:19;14.80;;;6.70;;
47455;SDS011;33202;48.512;-2.780;2023-02-25T00:26:45;11.85;;;6.53;;
47455;SDS011;33202;48.512;-2.780;2023-02-25T00:29:11;12.65;;;6.90;;
47455;SDS011;33202;48.512;-2.780;2023-02-25T00:31:38;10.32;;;6.18;;
47455;SDS011;33202;48.512;-2.780;2023-02-25T00:34:04;15.80;;;6.82;;
47455;SDS011;33202;48.512;-2.780;2023-02-25T00:36:30;14.75;;;6.90;;
47455;SDS011;33202;48.512;-2.780;2023-02-25T00:38:56;11.55;;;5.75;;
47455;SDS011;33202;48.512;-2.780;2023-02-25T00:41:23;12.20;;;6.43;;
47455;SDS011;33202;48.512;-2.780;2023-02-25T00:43:54;13.48;;;6.68;;
47455;SDS011;33202;48.512;-2.780;2023-02-25T00:46:21;12.18;;;6.28;;
47455;SDS011;33202;48.512;-2.780;2023-02-25T00:48:47;14.25;;;6.07;;
47455;SDS011;33202;48.512;-2.780;2023-02-25T00:51:14;13.32;;;7.10;;
47455;SDS011;33202;48.512;-2.780;2023-02-25T00:53:41;12.80;;;6.60;;
47455;SDS011;33202;48.512;-2.780;2023-02-25T00:56:08;16.27;;;7.07;;
47455;SDS011;33202;48.512;-2.780;2023-02-25T00:58:38;13.00;;;7.30;;
47455;SDS011;33202;48.512;-2.780;2023-02-25T01:01:04;14.90;;;6.97;;
47455;SDS011;33202;48.512;-2.780;2023-02-25T01:03:32;13.05;;;7.22;;
47455;SDS011;33202;48.512;-2.780;2023-02-25T01:05:58;15.73;;;6.90;;
47455;SDS011;33202;48.512;-2.780;2023-02-25T01:08:24;14.05;;;6.53;;
47455;SDS011;33202;48.512;-2.780;2023-02-25T01:10:50;16.67;;;7.30;;
47455;SDS011;33202;48.512;-2.780;2023-02-25T01:13:17;12.88;;;7.03;;
47455;SDS011;33202;48.512;-2.780;2023-02-25T01:15:43;13.90;;;7.18;;
47455;SDS011;33202;48.512;-2.780;2023-02-25T01:18:09;15.43;;;7.40;;
47455;SDS011;33202;48.512;-2.780;2023-02-25T01:20:36;13.88;;;6.72;;
47455;SDS011;33202;48.512;-2.780;2023-02-25T01:25:29;10.50;;;6.07;;
47455;SDS011;33202;48.512;-2.780;2023-02-25T01:27:55;12.30;;;7.22;;
47455;SDS011;33202;48.512;-2.780;2023-02-25T01:30:21;12.95;;;7.60;;
47455;SDS011;33202;48.512;-2.780;2023-02-25T01:32:48;15.40;;;7.88;;
47455;SDS011;33202;48.512;-2.780;2023-02-25T01:35:14;14.60;;;7.70;;
47455;SDS011;33202;48.512;-2.780;2023-02-25T01:37:40;14.07;;;7.65;;
47455;SDS011;33202;48.512;-2.780;2023-02-25T01:42:34;12.82;;;8.48;;
47455;SDS011;33202;48.512;-2.780;2023-02-25T01:47:37;15.07;;;8.13;;
47455;SDS011;33202;48.512;-2.780;2023-02-25T01:50:04;11.25;;;7.38;;
47455;SDS011;33202;48.512;-2.780;2023-02-25T01:52:30;16.73;;;8.05;;
47455;SDS011;33202;48.512;-2.780;2023-02-25T01:54:56;15.82;;;8.02;;
47455;SDS011;33202;48.512;-2.780;2023-02-25T01:57:23;17.40;;;7.97;;
47455;SDS011;33202;48.512;-2.780;2023-02-25T01:59:49;17.50;;;8.52;;
47455;SDS011;33202;48.512;-2.780;2023-02-25T02:02:17;14.20;;;8.30;;
47455;SDS011;33202;48.512;-2.780;2023-02-25T02:04:44;16.17;;;8.82;;
47455;SDS011;33202;48.512;-2.780;2023-02-25T02:07:15;15.63;;;8.13;;
47455;SDS011;33202;48.512;-2.780;2023-02-25T02:09:41;19.70;;;9.07;;
47455;SDS011;33202;48.512;-2.780;2023-02-25T02:12:20;15.38;;;8.77;;
47455;SDS011;33202;48.512;-2.780;2023-02-25T02:14:46;17.58;;;9.05;;
47455;SDS011;33202;48.512;-2.780;2023-02-25T02:17:14;16.08;;;9.57;;
47455;SDS011;33202;48.512;-2.780;2023-02-25T02:19:55;18.65;;;9.13;;
47455;SDS011;33202;48.512;-2.780;2023-02-25T02:22:28;17.05;;;9.50;;
47455;SDS011;33202;48.512;-2.780;2023-02-25T02:27:50;14.13;;;8.68;;
47455;SDS011;33202;48.512;-2.780;2023-02-25T02:35:51;17.00;;;9.52;;
47455;SDS011;33202;48.512;-2.780;2023-02-25T02:45:49;19.80;;;10.35;;
47455;SDS011;33202;48.512;-2.780;2023-02-25T02:51:05;19.60;;;9.85;;
47455;SDS011;33202;48.512;-2.780;2023-02-25T02:53:36;21.23;;;10.13;;
47455;SDS011;33202;48.512;-2.780;2023-02-25T02:56:03;18.15;;;10.15;;
47455;SDS011;33202;48.512;-2.780;2023-02-25T02:58:31;18.92;;;9.75;;
47455;SDS011;33202;48.512;-2.780;2023-02-25T03:01:10;17.85;;;9.55;;
47455;SDS011;33202;48.512;-2.780;2023-02-25T03:03:38;19.50;;;9.75;;
47455;SDS011;33202;48.512;-2.780;2023-02-25T03:06:24;21.75;;;10.40;;
47455;SDS011;33202;48.512;-2.780;2023-02-25T03:08:55;19.92;;;10.38;;
47455;SDS011;33202;48.512;-2.780;2023-02-25T03:11:23;17.27;;;8.90;;
47455;SDS011;33202;48.512;-2.780;2023-02-25T03:13:50;13.38;;;7.75;;
47455;SDS011;33202;48.512;-2.780;2023-02-25T03:16:19;19.63;;;8.10;;
47455;SDS011;33202;48.512;-2.780;2023-02-25T03:18:48;17.45;;;7.40;;
47455;SDS011;33202;48.512;-2.780;2023-02-25T03:21:18;17.20;;;8.32;;
47455;SDS011;33202;48.512;-2.780;2023-02-25T03:23:46;16.45;;;9.13;;
47455;SDS011;33202;48.512;-2.780;2023-02-25T03:26:13;19.45;;;8.77;;
47455;SDS011;33202;48.512;-2.780;2023-02-25T03:28:43;12.82;;;7.38;;
47455;SDS011;33202;48.512;-2.780;2023-02-25T03:33:44;14.20;;;5.68;;
47455;SDS011;33202;48.512;-2.780;2023-02-25T03:36:14;10.65;;;5.22;;
47455;SDS011;33202;48.512;-2.780;2023-02-25T03:38:44;11.90;;;4.95;;
47455;SDS011;33202;48.512;-2.780;2023-02-25T03:41:11;14.52;;;6.03;;
47455;SDS011;33202;48.512;-2.780;2023-02-25T03:43:45;11.75;;;6.10;;
47455;SDS011;33202;48.512;-2.780;2023-02-25T03:46:12;11.20;;;4.50;;
47455;SDS011;33202;48.512;-2.780;2023-02-25T03:48:39;11.68;;;3.97;;
47455;SDS011;33202;48.512;-2.780;2023-02-25T03:51:05;18.05;;;4.80;;
47455;SDS011;33202;48.512;-2.780;2023-02-25T03:53:32;7.55;;;3.78;;
47455;SDS011;33202;48.512;-2.780;2023-02-25T03:56:00;11.75;;;4.40;;
47455;SDS011;33202;48.512;-2.780;2023-02-25T03:58:33;13.25;;;4.60;;
47455;SDS011;33202;48.512;-2.780;2023-02-25T04:00:59;12.98;;;3.90;;
47455;SDS011;33202;48.512;-2.780;2023-02-25T04:03:29;14.00;;;4.13;;
47455;SDS011;33202;48.512;-2.780;2023-02-25T04:05:55;10.05;;;3.30;;
47455;SDS011;33202;48.512;-2.780;2023-02-25T04:08:21;12.40;;;3.58;;
47455;SDS011;33202;48.512;-2.780;2023-02-25T04:10:47;12.77;;;3.28;;
47455;SDS011;33202;48.512;-2.780;2023-02-25T04:13:13;13.82;;;3.38;;
47455;SDS011;33202;48.512;-2.780;2023-02-25T04:15:40;13.93;;;4.07;;
47455;SDS011;33202;48.512;-2.780;2023-02-25T04:18:06;14.82;;;3.22;;
47455;SDS011;33202;48.512;-2.780;2023-02-25T04:20:33;13.57;;;3.80;;
47455;SDS011;33202;48.512;-2.780;2023-02-25T04:22:59;14.80;;;4.57;;
47455;SDS011;33202;48.512;-2.780;2023-02-25T04:25:26;9.48;;;3.88;;
47455;SDS011;33202;48.512;-2.780;2023-02-25T04:27:52;12.30;;;3.63;;
47455;SDS011;33202;48.512;-2.780;2023-02-25T04:30:18;12.88;;;4.18;;
47455;SDS011;33202;48.512;-2.780;2023-02-25T04:32:44;15.88;;;4.68;;
47455;SDS011;33202;48.512;-2.780;2023-02-25T04:35:10;16.10;;;3.95;;
47455;SDS011;33202;48.512;-2.780;2023-02-25T04:37:37;12.93;;;4.10;;
47455;SDS011;33202;48.512;-2.780;2023-02-25T04:40:04;9.73;;;3.83;;
47455;SDS011;33202;48.512;-2.780;2023-02-25T04:42:35;12.98;;;4.15;;
47455;SDS011;33202;48.512;-2.780;2023-02-25T04:45:02;11.02;;;3.67;;
47455;SDS011;33202;48.512;-2.780;2023-02-25T04:47:28;11.60;;;3.65;;
47455;SDS011;33202;48.512;-2.780;2023-02-25T04:49:54;9.45;;;3.20;;
47455;SDS011;33202;48.512;-2.780;2023-02-25T04:52:19;10.38;;;2.13;;
47455;SDS011;33202;48.512;-2.780;2023-02-25T04:54:45;9.88;;;2.28;;
47455;SDS011;33202;48.512;-2.780;2023-02-25T04:57:11;7.93;;;1.95;;
47455;SDS011;33202;48.512;-2.780;2023-02-25T04:59:39;10.43;;;2.35;;
47455;SDS011;33202;48.512;-2.780;2023-02-25T05:02:05;12.50;;;3.08;;
47455;SDS011;33202;48.512;-2.780;2023-02-25T05:04:32;8.73;;;2.03;;
47455;SDS011;33202;48.512;-2.780;2023-02-25T05:06:58;7.82;;;2.05;;
47455;SDS011;33202;48.512;-2.780;2023-02-25T05:09:24;10.57;;;1.98;;
47455;SDS011;33202;48.512;-2.780;2023-02-25T05:11:52;11.25;;;2.42;;
47455;SDS011;33202;48.512;-2.780;2023-02-25T05:14:18;7.72;;;1.48;;
47455;SDS011;33202;48.512;-2.780;2023-02-25T05:16:44;10.80;;;1.90;;
47455;SDS011;33202;48.512;-2.780;2023-02-25T05:19:21;7.90;;;2.00;;
47455;SDS011;33202;48.512;-2.780;2023-02-25T05:21:48;10.90;;;2.47;;
47455;SDS011;33202;48.512;-2.780;2023-02-25T05:24:14;10.23;;;2.42;;
47455;SDS011;33202;48.512;-2.780;2023-02-25T05:26:40;16.15;;;2.35;;
47455;SDS011;33202;48.512;-2.780;2023-02-25T05:29:07;9.82;;;2.10;;
47455;SDS011;33202;48.512;-2.780;2023-02-25T05:31:33;11.63;;;2.88;;
47455;SDS011;33202;48.512;-2.780;2023-02-25T05:33:59;10.95;;;2.10;;
47455;SDS011;33202;48.512;-2.780;2023-02-25T05:36:25;10.55;;;2.10;;
47455;SDS011;33202;48.512;-2.780;2023-02-25T05:38:52;10.57;;;2.35;;
47455;SDS011;33202;48.512;-2.780;2023-02-25T05:41:18;12.05;;;2.08;;
47455;SDS011;33202;48.512;-2.780;2023-02-25T05:43:44;6.40;;;1.33;;
47455;SDS011;33202;48.512;-2.780;2023-02-25T05:46:11;11.90;;;2.63;;
47455;SDS011;33202;48.512;-2.780;2023-02-25T05:48:41;9.43;;;1.83;;
47455;SDS011;33202;48.512;-2.780;2023-02-25T05:51:10;12.20;;;2.10;;
47455;SDS011;33202;48.512;-2.780;2023-02-25T05:53:37;8.85;;;1.92;;
47455;SDS011;33202;48.512;-2.780;2023-02-25T05:56:07;9.35;;;1.70;;
47455;SDS011;33202;48.512;-2.780;2023-02-25T05:58:34;14.43;;;2.05;;
47455;SDS011;33202;48.512;-2.780;2023-02-25T06:01:05;14.50;;;2.63;;
47455;SDS011;33202;48.512;-2.780;2023-02-25T06:03:34;18.55;;;2.60;;
47455;SDS011;33202;48.512;-2.780;2023-02-25T06:06:01;12.95;;;1.73;;
47455;SDS011;33202;48.512;-2.780;2023-02-25T06:08:27;9.50;;;1.92;;
47455;SDS011;33202;48.512;-2.780;2023-02-25T06:10:53;9.10;;;1.60;;
47455;SDS011;33202;48.512;-2.780;2023-02-25T06:13:19;7.97;;;1.40;;
47455;SDS011;33202;48.512;-2.780;2023-02-25T06:15:45;13.88;;;2.22;;
47455;SDS011;33202;48.512;-2.780;2023-02-25T06:18:11;9.00;;;1.88;;
47455;SDS011;33202;48.512;-2.780;2023-02-25T06:20:37;8.88;;;1.73;;
47455;SDS011;33202;48.512;-2.780;2023-02-25T06:23:03;9.10;;;2.05;;
47455;SDS011;33202;48.512;-2.780;2023-02-25T06:25:29;10.43;;;1.88;;
47455;SDS011;33202;48.512;-2.780;2023-02-25T06:27:56;6.72;;;1.83;;
47455;SDS011;33202;48.512;-2.780;2023-02-25T06:30:22;10.07;;;1.60;;
47455;SDS011;33202;48.512;-2.780;2023-02-25T06:32:49;7.60;;;1.67;;
47455;SDS011;33202;48.512;-2.780;2023-02-25T06:35:15;10.95;;;1.70;;
47455;SDS011;33202;48.512;-2.780;2023-02-25T06:37:42;12.05;;;2.30;;
47455;SDS011;33202;48.512;-2.780;2023-02-25T06:40:08;9.57;;;1.70;;
47455;SDS011;33202;48.512;-2.780;2023-02-25T06:42:36;11.20;;;1.98;;
47455;SDS011;33202;48.512;-2.780;2023-02-25T06:45:02;6.32;;;1.13;;
47455;SDS011;33202;48.512;-2.780;2023-02-25T06:47:28;8.10;;;1.35;;
47455;SDS011;33202;48.512;-2.780;2023-02-25T06:49:54;8.95;;;2.00;;
47455;SDS011;33202;48.512;-2.780;2023-02-25T06:52:21;8.60;;;1.98;;
47455;SDS011;33202;48.512;-2.780;2023-02-25T06:54:48;9.77;;;2.83;;
47455;SDS011;33202;48.512;-2.780;2023-02-25T06:57:14;7.28;;;1.45;;
47455;SDS011;33202;48.512;-2.780;2023-02-25T06:59:40;10.20;;;2.30;;
47455;SDS011;33202;48.512;-2.780;2023-02-25T07:02:07;8.95;;;1.42;;
47455;SDS011;33202;48.512;-2.780;2023-02-25T07:04:34;7.60;;;1.60;;
47455;SDS011;33202;48.512;-2.780;2023-02-25T07:07:03;9.48;;;1.75;;
47455;SDS011;33202;48.512;-2.780;2023-02-25T07:09:29;13.10;;;2.15;;
47455;SDS011;33202;48.512;-2.780;2023-02-25T07:11:55;9.45;;;1.60;;
47455;SDS011;33202;48.512;-2.780;2023-02-25T07:14:21;8.63;;;1.83;;
47455;SDS011;33202;48.512;-2.780;2023-02-25T07:16:50;10.43;;;1.50;;
47455;SDS011;33202;48.512;-2.780;2023-02-25T07:19:17;9.00;;;1.95;;
47455;SDS011;33202;48.512;-2.780;2023-02-25T07:21:43;7.95;;;1.63;;
47455;SDS011;33202;48.512;-2.780;2023-02-25T07:24:10;8.18;;;1.75;;
47455;SDS011;33202;48.512;-2.780;2023-02-25T07:26:36;7.22;;;1.85;;
47455;SDS011;33202;48.512;-2.780;2023-02-25T07:29:02;10.07;;;1.85;;
47455;SDS011;33202;48.512;-2.780;2023-02-25T07:31:29;12.57;;;2.03;;
47455;SDS011;33202;48.512;-2.780;2023-02-25T07:33:56;9.18;;;1.92;;
47455;SDS011;33202;48.512;-2.780;2023-02-25T07:36:27;10.63;;;1.50;;
47455;SDS011;33202;48.512;-2.780;2023-02-25T07:38:54;10.30;;;1.95;;
47455;SDS011;33202;48.512;-2.780;2023-02-25T07:41:20;10.50;;;1.70;;
47455;SDS011;33202;48.512;-2.780;2023-02-25T07:43:47;7.03;;;1.50;;
47455;SDS011;33202;48.512;-2.780;2023-02-25T07:46:13;9.85;;;1.80;;
47455;SDS011;33202;48.512;-2.780;2023-02-25T07:48:39;10.52;;;1.85;;
47455;SDS011;33202;48.512;-2.780;2023-02-25T07:51:06;11.77;;;1.65;;
47455;SDS011;33202;48.512;-2.780;2023-02-25T07:53:32;11.52;;;2.10;;
47455;SDS011;33202;48.512;-2.780;2023-02-25T07:55:59;10.02;;;1.95;;
47455;SDS011;33202;48.512;-2.780;2023-02-25T07:58:25;8.38;;;2.17;;
47455;SDS011;33202;48.512;-2.780;2023-02-25T08:00:52;9.18;;;2.17;;
47455;SDS011;33202;48.512;-2.780;2023-02-25T08:03:18;8.25;;;1.90;;
47455;SDS011;33202;48.512;-2.780;2023-02-25T08:05:45;12.13;;;2.10;;
47455;SDS011;33202;48.512;-2.780;2023-02-25T08:08:14;11.85;;;2.53;;
47455;SDS011;33202;48.512;-2.780;2023-02-25T08:10:40;10.57;;;1.88;;
47455;SDS011;33202;48.512;-2.780;2023-02-25T08:13:07;13.75;;;2.17;;
47455;SDS011;33202;48.512;-2.780;2023-02-25T08:15:33;7.82;;;1.58;;
47455;SDS011;33202;48.512;-2.780;2023-02-25T08:17:59;12.50;;;2.05;;
47455;SDS011;33202;48.512;-2.780;2023-02-25T08:20:25;8.93;;;1.77;;
47455;SDS011;33202;48.512;-2.780;2023-02-25T08:22:51;8.98;;;1.60;;
47455;SDS011;33202;48.512;-2.780;2023-02-25T08:25:17;10.75;;;2.08;;
47455;SDS011;33202;48.512;-2.780;2023-02-25T08:27:43;9.10;;;2.10;;
47455;SDS011;33202;48.512;-2.780;2023-02-25T08:30:09;11.68;;;1.80;;
47455;SDS011;33202;48.512;-2.780;2023-02-25T08:32:36;7.72;;;1.95;;
47455;SDS011;33202;48.512;-2.780;2023-02-25T08:35:02;14.93;;;2.25;;
47455;SDS011;33202;48.512;-2.780;2023-02-25T08:37:28;6.78;;;1.73;;
47455;SDS011;33202;48.512;-2.780;2023-02-25T08:39:54;7.93;;;1.70;;
47455;SDS011;33202;48.512;-2.780;2023-02-25T08:42:21;11.60;;;2.55;;
47455;SDS011;33202;48.512;-2.780;2023-02-25T08:44:48;12.25;;;2.75;;
47455;SDS011;33202;48.512;-2.780;2023-02-25T08:47:14;12.93;;;2.55;;
47455;SDS011;33202;48.512;-2.780;2023-02-25T08:49:40;17.08;;;3.10;;
47455;SDS011;33202;48.512;-2.780;2023-02-25T08:52:09;15.18;;;2.03;;
47455;SDS011;33202;48.512;-2.780;2023-02-25T08:54:38;14.70;;;2.55;;
47455;SDS011;33202;48.512;-2.780;2023-02-25T08:57:05;13.37;;;1.83;;
47455;SDS011;33202;48.512;-2.780;2023-02-25T08:59:31;68.65;;;24.25;;
47455;SDS011;33202;48.512;-2.780;2023-02-25T09:02:03;19.15;;;5.85;;
47455;SDS011;33202;48.512;-2.780;2023-02-25T09:04:30;9.35;;;2.80;;
47455;SDS011;33202;48.512;-2.780;2023-02-25T09:09:23;10.73;;;2.35;;
47455;SDS011;33202;48.512;-2.780;2023-02-25T09:11:49;12.48;;;2.15;;
47455;SDS011;33202;48.512;-2.780;2023-02-25T09:14:15;13.18;;;2.22;;
47455;SDS011;33202;48.512;-2.780;2023-02-25T09:16:42;10.23;;;2.33;;
47455;SDS011;33202;48.512;-2.780;2023-02-25T09:19:08;10.23;;;1.50;;
47455;SDS011;33202;48.512;-2.780;2023-02-25T09:21:36;10.27;;;1.80;;
47455;SDS011;33202;48.512;-2.780;2023-02-25T09:24:04;7.72;;;2.05;;
47455;SDS011;33202;48.512;-2.780;2023-02-25T09:26:30;6.47;;;1.30;;
47455;SDS011;33202;48.512;-2.780;2023-02-25T09:28:59;5.28;;;1.45;;
47455;SDS011;33202;48.512;-2.780;2023-02-25T09:31:25;5.85;;;1.73;;
47455;SDS011;33202;48.512;-2.780;2023-02-25T09:33:51;3.95;;;1.10;;
47455;SDS011;33202;48.512;-2.780;2023-02-25T09:36:18;5.05;;;1.83;;
47455;SDS011;33202;48.512;-2.780;2023-02-25T09:38:45;13.27;;;3.15;;
47455;SDS011;33202;48.512;-2.780;2023-02-25T09:46:25;7.00;;;1.88;;
47455;SDS011;33202;48.512;-2.780;2023-02-25T09:48:56;5.60;;;1.33;;
47455;SDS011;33202;48.512;-2.780;2023-02-25T09:51:30;5.95;;;1.20;;
47455;SDS011;33202;48.512;-2.780;2023-02-25T09:56:26;6.93;;;1.60;;
47455;SDS011;33202;48.512;-2.780;2023-02-25T09:58:53;10.48;;;1.90;;
47455;SDS011;33202;48.512;-2.780;2023-02-25T10:11:52;5.20;;;1.33;;
47455;SDS011;33202;48.512;-2.780;2023-02-25T10:27:30;7.72;;;1.60;;
47455;SDS011;33202;48.512;-2.780;2023-02-25T10:29:55;10.43;;;1.98;;
47455;SDS011;33202;48.512;-2.780;2023-02-25T10:32:25;9.88;;;2.08;;
47455;SDS011;33202;48.512;-2.780;2023-02-25T10:34:55;7.82;;;2.00;;
47455;SDS011;33202;48.512;-2.780;2023-02-25T10:37:30;7.53;;;1.70;;
47455;SDS011;33202;48.512;-2.780;2023-02-25T10:39:58;7.75;;;1.50;;
47455;SDS011;33202;48.512;-2.780;2023-02-25T10:42:24;5.45;;;1.20;;
47455;SDS011;33202;48.512;-2.780;2023-02-25T10:44:51;5.05;;;1.48;;
47455;SDS011;33202;48.512;-2.780;2023-02-25T10:47:20;9.33;;;1.67;;
47455;SDS011;33202;48.512;-2.780;2023-02-25T10:52:33;6.93;;;1.42;;
47455;SDS011;33202;48.512;-2.780;2023-02-25T10:54:59;7.53;;;1.50;;
47455;SDS011;33202;48.512;-2.780;2023-02-25T10:57:26;13.07;;;2.08;;
47455;SDS011;33202;48.512;-2.780;2023-02-25T10:59:59;13.02;;;2.58;;
47455;SDS011;33202;48.512;-2.780;2023-02-25T11:02:29;9.30;;;2.10;;
47455;SDS011;33202;48.512;-2.780;2023-02-25T11:04:56;10.10;;;2.20;;
47455;SDS011;33202;48.512;-2.780;2023-02-25T11:10:05;7.10;;;1.85;;
47455;SDS011;33202;48.512;-2.780;2023-02-25T11:17:50;15.70;;;2.58;;
47455;SDS011;33202;48.512;-2.780;2023-02-25T11:20:21;8.40;;;1.90;;
47455;SDS011;33202;48.512;-2.780;2023-02-25T11:22:50;11.68;;;2.13;;
47455;SDS011;33202;48.512;-2.780;2023-02-25T11:25:36;6.55;;;1.80;;
47455;SDS011;33202;48.512;-2.780;2023-02-25T11:28:03;8.82;;;2.40;;
47455;SDS011;33202;48.512;-2.780;2023-02-25T11:30:38;10.85;;;2.05;;
47455;SDS011;33202;48.512;-2.780;2023-02-25T11:33:07;5.10;;;1.48;;
47455;SDS011;33202;48.512;-2.780;2023-02-25T11:35:37;9.88;;;1.88;;
47455;SDS011;33202;48.512;-2.780;2023-02-25T11:38:11;6.82;;;1.58;;
47455;SDS011;33202;48.512;-2.780;2023-02-25T11:40:42;10.65;;;1.58;;
47455;SDS011;33202;48.512;-2.780;2023-02-25T11:45:50;8.10;;;1.50;;
47455;SDS011;33202;48.512;-2.780;2023-02-25T11:48:23;7.03;;;2.08;;
47455;SDS011;33202;48.512;-2.780;2023-02-25T11:50:55;7.80;;;2.15;;
47455;SDS011;33202;48.512;-2.780;2023-02-25T12:25:04;5.88;;;1.98;;
47455;SDS011;33202;48.512;-2.780;2023-02-25T12:33:13;11.27;;;3.50;;
47455;SDS011;33202;48.512;-2.780;2023-02-25T12:40:59;8.15;;;1.85;;
47455;SDS011;33202;48.512;-2.780;2023-02-25T12:46:04;4.25;;;1.50;;
47455;SDS011;33202;48.512;-2.780;2023-02-25T12:51:20;4.72;;;1.17;;
47455;SDS011;33202;48.512;-2.780;2023-02-25T12:59:36;6.13;;;1.30;;
47455;SDS011;33202;48.512;-2.780;2023-02-25T13:13:00;6.35;;;1.70;;
47455;SDS011;33202;48.512;-2.780;2023-02-25T13:18:35;8.13;;;1.70;;
47455;SDS011;33202;48.512;-2.780;2023-02-25T13:21:17;7.35;;;2.10;;
47455;SDS011;33202;48.512;-2.780;2023-02-25T13:23:53;9.70;;;2.33;;
47455;SDS011;33202;48.512;-2.780;2023-02-25T13:29:18;7.70;;;2.05;;
47455;SDS011;33202;48.512;-2.780;2023-02-25T13:37:05;6.30;;;1.92;;
47455;SDS011;33202;48.512;-2.780;2023-02-25T13:50:31;9.18;;;2.30;;
47455;SDS011;33202;48.512;-2.780;2023-02-25T13:55:45;5.82;;;1.88;;
47455;SDS011;33202;48.512;-2.780;2023-02-25T13:58:31;8.10;;;2.10;;
47455;SDS011;33202;48.512;-2.780;2023-02-25T14:06:45;7.57;;;2.13;;
47455;SDS011;33202;48.512;-2.780;2023-02-25T14:09:16;10.27;;;2.95;;
47455;SDS011;33202;48.512;-2.780;2023-02-25T14:11:48;10.07;;;2.40;;
47455;SDS011;33202;48.512;-2.780;2023-02-25T14:14:24;6.55;;;2.22;;
47455;SDS011;33202;48.512;-2.780;2023-02-25T14:19:46;11.75;;;2.33;;
47455;SDS011;33202;48.512;-2.780;2023-02-25T14:27:26;7.78;;;2.20;;
47455;SDS011;33202;48.512;-2.780;2023-02-25T14:35:01;5.00;;;1.90;;
47455;SDS011;33202;48.512;-2.780;2023-02-25T14:40:16;7.85;;;2.45;;
47455;SDS011;33202;48.512;-2.780;2023-02-25T14:45:19;11.18;;;2.45;;
47455;SDS011;33202;48.512;-2.780;2023-02-25T14:55:25;12.27;;;2.55;;
47455;SDS011;33202;48.512;-2.780;2023-02-25T15:11:29;13.70;;;2.78;;
47455;SDS011;33202;48.512;-2.780;2023-02-25T15:22:20;6.97;;;1.85;;
47455;SDS011;33202;48.512;-2.780;2023-02-25T15:24:46;6.32;;;2.55;;
47455;SDS011;33202;48.512;-2.780;2023-02-25T15:29:58;10.98;;;2.75;;
47455;SDS011;33202;48.512;-2.780;2023-02-25T15:32:25;10.18;;;2.70;;
47455;SDS011;33202;48.512;-2.780;2023-02-25T15:37:23;11.02;;;3.22;;
47455;SDS011;33202;48.512;-2.780;2023-02-25T15:39:52;12.90;;;2.55;;
47455;SDS011;33202;48.512;-2.780;2023-02-25T15:42:37;8.57;;;2.35;;
47455;SDS011;33202;48.512;-2.780;2023-02-25T15:53:07;12.15;;;2.17;;
47455;SDS011;33202;48.512;-2.780;2023-02-25T15:58:00;9.25;;;2.28;;
47455;SDS011;33202;48.512;-2.780;2023-02-25T16:05:52;10.20;;;2.85;;
47455;SDS011;33202;48.512;-2.780;2023-02-25T16:08:22;10.48;;;2.88;;
47455;SDS011;33202;48.512;-2.780;2023-02-25T16:10:49;8.93;;;2.47;;
47455;SDS011;33202;48.512;-2.780;2023-02-25T16:13:21;8.80;;;2.50;;
47455;SDS011;33202;48.512;-2.780;2023-02-25T16:15:51;10.63;;;3.58;;
47455;SDS011;33202;48.512;-2.780;2023-02-25T16:20:44;7.05;;;2.25;;
47455;SDS011;33202;48.512;-2.780;2023-02-25T16:23:12;12.77;;;2.75;;
47455;SDS011;33202;48.512;-2.780;2023-02-25T16:28:31;17.88;;;3.95;;
47455;SDS011;33202;48.512;-2.780;2023-02-25T16:31:03;15.07;;;3.35;;
47455;SDS011;33202;48.512;-2.780;2023-02-25T16:38:48;16.17;;;3.20;;
47455;SDS011;33202;48.512;-2.780;2023-02-25T16:41:18;11.65;;;4.43;;
47455;SDS011;33202;48.512;-2.780;2023-02-25T16:43:44;10.80;;;3.65;;
47455;SDS011;33202;48.512;-2.780;2023-02-25T16:46:18;17.45;;;6.95;;
47455;SDS011;33202;48.512;-2.780;2023-02-25T16:51:24;13.35;;;4.00;;
47455;SDS011;33202;48.512;-2.780;2023-02-25T16:53:55;14.45;;;3.63;;
47455;SDS011;33202;48.512;-2.780;2023-02-25T16:56:24;13.98;;;3.65;;
47455;SDS011;33202;48.512;-2.780;2023-02-25T17:01:23;12.77;;;3.22;;
47455;SDS011;33202;48.512;-2.780;2023-02-25T17:03:52;11.32;;;3.08;;
47455;SDS011;33202;48.512;-2.780;2023-02-25T17:06:24;9.30;;;2.40;;
47455;SDS011;33202;48.512;-2.780;2023-02-25T17:08:51;14.40;;;3.65;;
47455;SDS011;33202;48.512;-2.780;2023-02-25T17:11:17;12.73;;;3.55;;
47455;SDS011;33202;48.512;-2.780;2023-02-25T17:13:43;11.98;;;3.10;;
47455;SDS011;33202;48.512;-2.780;2023-02-25T17:16:22;11.20;;;2.85;;
47455;SDS011;33202;48.512;-2.780;2023-02-25T17:18:53;9.45;;;3.00;;
47455;SDS011;33202;48.512;-2.780;2023-02-25T17:23:45;10.73;;;2.92;;
47455;SDS011;33202;48.512;-2.780;2023-02-25T17:26:15;16.33;;;3.40;;
47455;SDS011;33202;48.512;-2.780;2023-02-25T17:28:41;13.68;;;3.20;;
47455;SDS011;33202;48.512;-2.780;2023-02-25T17:33:35;9.82;;;3.28;;
47455;SDS011;33202;48.512;-2.780;2023-02-25T17:36:11;14.80;;;3.60;;
47455;SDS011;33202;48.512;-2.780;2023-02-25T17:38:43;17.33;;;5.13;;
47455;SDS011;33202;48.512;-2.780;2023-02-25T17:41:16;17.30;;;4.05;;
47455;SDS011;33202;48.512;-2.780;2023-02-25T17:43:42;14.27;;;5.15;;
47455;SDS011;33202;48.512;-2.780;2023-02-25T17:48:40;14.82;;;4.70;;
47455;SDS011;33202;48.512;-2.780;2023-02-25T17:51:09;14.30;;;4.32;;
47455;SDS011;33202;48.512;-2.780;2023-02-25T17:53:39;14.52;;;3.95;;
47455;SDS011;33202;48.512;-2.780;2023-02-25T17:56:16;17.65;;;4.88;;
47455;SDS011;33202;48.512;-2.780;2023-02-25T17:58:46;14.73;;;4.70;;
47455;SDS011;33202;48.512;-2.780;2023-02-25T18:01:19;14.02;;;5.32;;
47455;SDS011;33202;48.512;-2.780;2023-02-25T18:03:47;16.38;;;4.63;;
47455;SDS011;33202;48.512;-2.780;2023-02-25T18:06:25;14.93;;;4.65;;
47455;SDS011;33202;48.512;-2.780;2023-02-25T18:08:52;16.75;;;4.25;;
47455;SDS011;33202;48.512;-2.780;2023-02-25T18:13:47;16.48;;;5.40;;
47455;SDS011;33202;48.512;-2.780;2023-02-25T18:16:35;14.82;;;5.68;;
47455;SDS011;33202;48.512;-2.780;2023-02-25T18:21:28;17.20;;;5.13;;
47455;SDS011;33202;48.512;-2.780;2023-02-25T18:23:54;17.67;;;5.00;;
47455;SDS011;33202;48.512;-2.780;2023-02-25T18:26:21;15.25;;;5.22;;
47455;SDS011;33202;48.512;-2.780;2023-02-25T18:28:48;13.90;;;4.82;;
47455;SDS011;33202;48.512;-2.780;2023-02-25T18:31:14;15.98;;;5.03;;
47455;SDS011;33202;48.512;-2.780;2023-02-25T18:33:42;11.60;;;4.28;;
47455;SDS011;33202;48.512;-2.780;2023-02-25T18:36:10;20.52;;;5.15;;
47455;SDS011;33202;48.512;-2.780;2023-02-25T18:38:41;16.27;;;5.20;;
47455;SDS011;33202;48.512;-2.780;2023-02-25T18:41:07;15.68;;;4.95;;
47455;SDS011;33202;48.512;-2.780;2023-02-25T18:43:35;17.35;;;4.35;;
47455;SDS011;33202;48.512;-2.780;2023-02-25T18:46:05;16.08;;;4.78;;
47455;SDS011;33202;48.512;-2.780;2023-02-25T18:48:31;14.73;;;3.90;;
47455;SDS011;33202;48.512;-2.780;2023-02-25T18:50:59;10.95;;;3.25;;
47455;SDS011;33202;48.512;-2.780;2023-02-25T18:53:25;12.35;;;4.47;;
47455;SDS011;33202;48.512;-2.780;2023-02-25T18:55:52;21.67;;;5.03;;
47455;SDS011;33202;48.512;-2.780;2023-02-25T18:58:19;16.60;;;4.85;;
47455;SDS011;33202;48.512;-2.780;2023-02-25T19:00:53;17.45;;;4.28;;